Terminal Aerodrome Forecast
Issued by NWS Sterling, VA

Current Version | Previous Version | Graphics & Text | Print | Product List | Glossary On
Versions: 1 2 3 4 5 6 7 8 9 10 11 12 13 14 15 16 17 18 19 20 21 22 23
658
FTUS41 KLWX 091329 AAA
TAFIAD
TAF AMD
KIAD 091329Z 0913/1018 04003KT 1SM -SN BR OVC010
     FM091400 VRB04KT 1SM -SN OVC006
     FM091700 33006KT 3SM -SHSN OVC025
     FM092100 31007KT P6SM -SHRASN OVC030
     FM100100 29008KT P6SM OVC050=

USA.gov is the U.S. government's official web portal to all federal, state and local government web resources and services.